Saltville, Virginia
Current Conditions -  °F | °C
As of 9:55 AM on Sunday 21 Dec 2014 (Local Time) from KJFZ Reporting Station
Clear Clear  
Wind Chill: 33°   Ceiling: Unl
Heat Index: 33°   Visibility: 10mi
Dew Point: 28°   Wind: 3mph
Humidity: 82%   Direction: 30°NNE
Pressure: 30.22"   Gusts: NA
Location:  36.88°N, 81.76°W
Report Text: KJFZ 211455Z AUTO 03003KT 10SM CLR 01/M02 A3022 RMK AO2 T00071020
Loading
Personal Weather Stations






























Interactive Weather Map New forecast layout! Learn more

10-Day Weather Forecast

Advertisements
Track Severe Weather on mobile